sensor_id;sensor_type;location;lat;lon;timestamp;P1;durP1;ratioP1;P2;durP2;ratioP2
66585;SDS011;53444;45.822;16.092;2023-08-24T00:00:47;8.57;;;7.20;;
66585;SDS011;53444;45.822;16.092;2023-08-24T00:03:14;11.45;;;7.72;;
66585;SDS011;53444;45.822;16.092;2023-08-24T00:05:41;9.15;;;7.25;;
66585;SDS011;53444;45.822;16.092;2023-08-24T00:08:07;9.83;;;7.70;;
66585;SDS011;53444;45.822;16.092;2023-08-24T00:10:34;9.70;;;7.82;;
66585;SDS011;53444;45.822;16.092;2023-08-24T00:13:02;8.65;;;6.80;;
66585;SDS011;53444;45.822;16.092;2023-08-24T00:15:29;9.27;;;7.00;;
66585;SDS011;53444;45.822;16.092;2023-08-24T00:17:57;9.63;;;7.15;;
66585;SDS011;53444;45.822;16.092;2023-08-24T00:20:23;8.20;;;6.80;;
66585;SDS011;53444;45.822;16.092;2023-08-24T00:22:52;10.15;;;6.80;;
66585;SDS011;53444;45.822;16.092;2023-08-24T00:25:18;8.00;;;7.20;;
66585;SDS011;53444;45.822;16.092;2023-08-24T00:27:45;8.15;;;6.53;;
66585;SDS011;53444;45.822;16.092;2023-08-24T00:30:12;10.32;;;7.25;;
66585;SDS011;53444;45.822;16.092;2023-08-24T00:32:38;9.17;;;7.30;;
66585;SDS011;53444;45.822;16.092;2023-08-24T00:35:08;8.70;;;6.53;;
66585;SDS011;53444;45.822;16.092;2023-08-24T00:37:35;8.38;;;6.95;;
66585;SDS011;53444;45.822;16.092;2023-08-24T00:40:03;10.35;;;6.85;;
66585;SDS011;53444;45.822;16.092;2023-08-24T00:42:36;7.85;;;6.75;;
66585;SDS011;53444;45.822;16.092;2023-08-24T00:45:04;7.77;;;6.50;;
66585;SDS011;53444;45.822;16.092;2023-08-24T00:47:31;10.10;;;6.93;;
66585;SDS011;53444;45.822;16.092;2023-08-24T00:49:58;8.52;;;6.22;;
66585;SDS011;53444;45.822;16.092;2023-08-24T00:52:27;8.60;;;6.55;;
66585;SDS011;53444;45.822;16.092;2023-08-24T00:54:57;8.10;;;6.20;;
66585;SDS011;53444;45.822;16.092;2023-08-24T00:57:25;8.60;;;6.77;;
66585;SDS011;53444;45.822;16.092;2023-08-24T00:59:51;8.07;;;6.15;;
66585;SDS011;53444;45.822;16.092;2023-08-24T01:02:18;8.25;;;6.43;;
66585;SDS011;53444;45.822;16.092;2023-08-24T01:04:45;9.07;;;6.45;;
66585;SDS011;53444;45.822;16.092;2023-08-24T01:07:12;7.03;;;6.07;;
66585;SDS011;53444;45.822;16.092;2023-08-24T01:09:41;8.00;;;6.80;;
66585;SDS011;53444;45.822;16.092;2023-08-24T01:12:09;7.63;;;6.22;;
66585;SDS011;53444;45.822;16.092;2023-08-24T01:14:45;6.65;;;5.72;;
66585;SDS011;53444;45.822;16.092;2023-08-24T01:17:18;8.07;;;6.28;;
66585;SDS011;53444;45.822;16.092;2023-08-24T01:19:49;7.47;;;6.05;;
66585;SDS011;53444;45.822;16.092;2023-08-24T01:22:20;7.07;;;5.97;;
66585;SDS011;53444;45.822;16.092;2023-08-24T01:25:00;6.88;;;5.60;;
66585;SDS011;53444;45.822;16.092;2023-08-24T01:27:34;10.93;;;5.68;;
66585;SDS011;53444;45.822;16.092;2023-08-24T01:30:02;8.35;;;6.30;;
66585;SDS011;53444;45.822;16.092;2023-08-24T01:32:30;8.45;;;5.80;;
66585;SDS011;53444;45.822;16.092;2023-08-24T01:34:58;6.83;;;5.83;;
66585;SDS011;53444;45.822;16.092;2023-08-24T01:37:24;8.60;;;5.57;;
66585;SDS011;53444;45.822;16.092;2023-08-24T01:39:54;7.28;;;5.50;;
66585;SDS011;53444;45.822;16.092;2023-08-24T01:42:31;7.80;;;5.82;;
66585;SDS011;53444;45.822;16.092;2023-08-24T01:45:04;6.57;;;5.53;;
66585;SDS011;53444;45.822;16.092;2023-08-24T01:47:33;6.33;;;5.50;;
66585;SDS011;53444;45.822;16.092;2023-08-24T01:50:02;8.63;;;5.50;;
66585;SDS011;53444;45.822;16.092;2023-08-24T01:52:30;7.05;;;5.60;;
66585;SDS011;53444;45.822;16.092;2023-08-24T01:54:58;9.00;;;5.50;;
66585;SDS011;53444;45.822;16.092;2023-08-24T01:57:25;7.72;;;5.43;;
66585;SDS011;53444;45.822;16.092;2023-08-24T01:59:53;6.13;;;5.47;;
66585;SDS011;53444;45.822;16.092;2023-08-24T02:02:20;6.35;;;5.30;;
66585;SDS011;53444;45.822;16.092;2023-08-24T02:04:47;6.57;;;5.72;;
66585;SDS011;53444;45.822;16.092;2023-08-24T02:07:14;7.03;;;5.22;;
66585;SDS011;53444;45.822;16.092;2023-08-24T02:09:40;9.98;;;6.07;;
66585;SDS011;53444;45.822;16.092;2023-08-24T02:12:07;6.93;;;4.80;;
66585;SDS011;53444;45.822;16.092;2023-08-24T02:14:34;7.43;;;5.00;;
66585;SDS011;53444;45.822;16.092;2023-08-24T02:17:02;8.13;;;5.22;;
66585;SDS011;53444;45.822;16.092;2023-08-24T02:19:28;7.45;;;5.60;;
66585;SDS011;53444;45.822;16.092;2023-08-24T02:21:55;6.47;;;5.40;;
66585;SDS011;53444;45.822;16.092;2023-08-24T02:24:21;6.57;;;5.20;;
66585;SDS011;53444;45.822;16.092;2023-08-24T02:26:48;6.45;;;5.53;;
66585;SDS011;53444;45.822;16.092;2023-08-24T02:29:15;8.38;;;5.80;;
66585;SDS011;53444;45.822;16.092;2023-08-24T02:31:41;8.65;;;5.20;;
66585;SDS011;53444;45.822;16.092;2023-08-24T02:34:09;9.23;;;6.10;;
66585;SDS011;53444;45.822;16.092;2023-08-24T02:36:36;7.37;;;5.77;;
66585;SDS011;53444;45.822;16.092;2023-08-24T02:39:02;9.45;;;6.10;;
66585;SDS011;53444;45.822;16.092;2023-08-24T02:41:30;8.18;;;6.05;;
66585;SDS011;53444;45.822;16.092;2023-08-24T02:43:56;7.97;;;5.78;;
66585;SDS011;53444;45.822;16.092;2023-08-24T02:46:23;8.00;;;6.05;;
66585;SDS011;53444;45.822;16.092;2023-08-24T02:48:49;9.93;;;6.10;;
66585;SDS011;53444;45.822;16.092;2023-08-24T02:51:17;8.55;;;6.38;;
66585;SDS011;53444;45.822;16.092;2023-08-24T02:53:47;9.65;;;6.57;;
66585;SDS011;53444;45.822;16.092;2023-08-24T02:56:13;7.28;;;6.10;;
66585;SDS011;53444;45.822;16.092;2023-08-24T02:58:40;8.85;;;6.43;;
66585;SDS011;53444;45.822;16.092;2023-08-24T03:01:07;7.47;;;6.53;;
66585;SDS011;53444;45.822;16.092;2023-08-24T03:03:34;9.32;;;6.35;;
66585;SDS011;53444;45.822;16.092;2023-08-24T03:06:01;8.45;;;6.57;;
66585;SDS011;53444;45.822;16.092;2023-08-24T03:08:30;8.75;;;6.60;;
66585;SDS011;53444;45.822;16.092;2023-08-24T03:10:57;9.80;;;6.90;;
66585;SDS011;53444;45.822;16.092;2023-08-24T03:13:24;7.30;;;6.17;;
66585;SDS011;53444;45.822;16.092;2023-08-24T03:15:51;7.55;;;6.57;;
66585;SDS011;53444;45.822;16.092;2023-08-24T03:18:18;9.50;;;6.38;;
66585;SDS011;53444;45.822;16.092;2023-08-24T03:20:45;8.00;;;6.53;;
66585;SDS011;53444;45.822;16.092;2023-08-24T03:23:13;9.02;;;6.80;;
66585;SDS011;53444;45.822;16.092;2023-08-24T03:25:41;9.77;;;6.87;;
66585;SDS011;53444;45.822;16.092;2023-08-24T03:28:08;10.40;;;6.80;;
66585;SDS011;53444;45.822;16.092;2023-08-24T03:30:35;9.70;;;7.22;;
66585;SDS011;53444;45.822;16.092;2023-08-24T03:33:03;12.40;;;7.20;;
66585;SDS011;53444;45.822;16.092;2023-08-24T03:35:30;8.90;;;7.78;;
66585;SDS011;53444;45.822;16.092;2023-08-24T03:37:57;9.60;;;7.43;;
66585;SDS011;53444;45.822;16.092;2023-08-24T03:40:24;9.75;;;7.63;;
66585;SDS011;53444;45.822;16.092;2023-08-24T03:42:52;9.13;;;7.72;;
66585;SDS011;53444;45.822;16.092;2023-08-24T03:45:19;9.73;;;7.88;;
66585;SDS011;53444;45.822;16.092;2023-08-24T03:47:45;11.15;;;7.18;;
66585;SDS011;53444;45.822;16.092;2023-08-24T03:50:12;8.60;;;7.03;;
66585;SDS011;53444;45.822;16.092;2023-08-24T03:52:38;8.18;;;7.22;;
66585;SDS011;53444;45.822;16.092;2023-08-24T03:55:05;10.23;;;7.32;;
66585;SDS011;53444;45.822;16.092;2023-08-24T03:57:32;8.15;;;6.45;;
66585;SDS011;53444;45.822;16.092;2023-08-24T04:00:01;8.88;;;7.07;;
66585;SDS011;53444;45.822;16.092;2023-08-24T04:02:31;9.37;;;7.00;;
66585;SDS011;53444;45.822;16.092;2023-08-24T04:04:57;11.43;;;7.28;;
66585;SDS011;53444;45.822;16.092;2023-08-24T04:07:24;9.50;;;7.00;;
66585;SDS011;53444;45.822;16.092;2023-08-24T04:09:50;7.53;;;6.70;;
66585;SDS011;53444;45.822;16.092;2023-08-24T04:12:17;12.23;;;8.15;;
66585;SDS011;53444;45.822;16.092;2023-08-24T04:14:44;10.13;;;7.60;;
66585;SDS011;53444;45.822;16.092;2023-08-24T04:17:11;10.25;;;7.60;;
66585;SDS011;53444;45.822;16.092;2023-08-24T04:19:38;10.32;;;7.80;;
66585;SDS011;53444;45.822;16.092;2023-08-24T04:22:05;11.40;;;6.97;;
66585;SDS011;53444;45.822;16.092;2023-08-24T04:24:32;11.75;;;8.27;;
66585;SDS011;53444;45.822;16.092;2023-08-24T04:26:58;11.23;;;7.90;;
66585;SDS011;53444;45.822;16.092;2023-08-24T04:29:25;9.68;;;7.68;;
66585;SDS011;53444;45.822;16.092;2023-08-24T04:31:51;11.20;;;8.35;;
66585;SDS011;53444;45.822;16.092;2023-08-24T04:34:19;9.07;;;6.85;;
66585;SDS011;53444;45.822;16.092;2023-08-24T04:36:46;10.65;;;6.10;;
66585;SDS011;53444;45.822;16.092;2023-08-24T04:39:13;8.40;;;6.37;;
66585;SDS011;53444;45.822;16.092;2023-08-24T04:41:39;7.20;;;6.25;;
66585;SDS011;53444;45.822;16.092;2023-08-24T04:44:06;8.75;;;6.57;;
66585;SDS011;53444;45.822;16.092;2023-08-24T04:46:33;10.23;;;6.97;;
66585;SDS011;53444;45.822;16.092;2023-08-24T04:48:59;10.80;;;6.80;;
66585;SDS011;53444;45.822;16.092;2023-08-24T04:51:27;9.03;;;6.47;;
66585;SDS011;53444;45.822;16.092;2023-08-24T04:53:54;10.55;;;7.00;;
66585;SDS011;53444;45.822;16.092;2023-08-24T04:56:21;12.32;;;6.88;;
66585;SDS011;53444;45.822;16.092;2023-08-24T04:58:54;9.52;;;7.38;;
66585;SDS011;53444;45.822;16.092;2023-08-24T05:01:22;10.23;;;7.03;;
66585;SDS011;53444;45.822;16.092;2023-08-24T05:03:50;9.73;;;7.00;;
66585;SDS011;53444;45.822;16.092;2023-08-24T05:06:16;8.88;;;6.53;;
66585;SDS011;53444;45.822;16.092;2023-08-24T05:08:44;11.70;;;6.68;;
66585;SDS011;53444;45.822;16.092;2023-08-24T05:11:11;15.57;;;8.60;;
66585;SDS011;53444;45.822;16.092;2023-08-24T05:13:40;12.90;;;8.55;;
66585;SDS011;53444;45.822;16.092;2023-08-24T05:16:06;14.50;;;8.30;;
66585;SDS011;53444;45.822;16.092;2023-08-24T05:18:33;13.68;;;8.68;;
66585;SDS011;53444;45.822;16.092;2023-08-24T05:21:00;12.82;;;8.27;;
66585;SDS011;53444;45.822;16.092;2023-08-24T05:23:28;12.23;;;7.90;;
66585;SDS011;53444;45.822;16.092;2023-08-24T05:25:57;13.90;;;7.90;;
66585;SDS011;53444;45.822;16.092;2023-08-24T05:28:24;14.80;;;8.40;;
66585;SDS011;53444;45.822;16.092;2023-08-24T05:30:51;12.98;;;7.78;;
66585;SDS011;53444;45.822;16.092;2023-08-24T05:33:17;10.73;;;7.75;;
66585;SDS011;53444;45.822;16.092;2023-08-24T05:35:44;11.98;;;7.60;;
66585;SDS011;53444;45.822;16.092;2023-08-24T05:38:10;13.13;;;7.97;;
66585;SDS011;53444;45.822;16.092;2023-08-24T05:40:38;13.53;;;8.57;;
66585;SDS011;53444;45.822;16.092;2023-08-24T05:43:13;13.48;;;8.20;;
66585;SDS011;53444;45.822;16.092;2023-08-24T05:45:42;14.00;;;9.20;;
66585;SDS011;53444;45.822;16.092;2023-08-24T05:48:12;14.60;;;9.25;;
66585;SDS011;53444;45.822;16.092;2023-08-24T05:50:42;12.40;;;9.02;;
66585;SDS011;53444;45.822;16.092;2023-08-24T05:53:11;15.77;;;8.57;;
66585;SDS011;53444;45.822;16.092;2023-08-24T05:55:38;14.75;;;8.98;;
66585;SDS011;53444;45.822;16.092;2023-08-24T05:58:05;11.57;;;9.50;;
66585;SDS011;53444;45.822;16.092;2023-08-24T06:00:33;13.90;;;8.70;;
66585;SDS011;53444;45.822;16.092;2023-08-24T06:02:59;13.98;;;10.38;;
66585;SDS011;53444;45.822;16.092;2023-08-24T06:05:26;16.10;;;10.00;;
66585;SDS011;53444;45.822;16.092;2023-08-24T06:07:53;13.05;;;9.98;;
66585;SDS011;53444;45.822;16.092;2023-08-24T06:10:19;14.05;;;9.98;;
66585;SDS011;53444;45.822;16.092;2023-08-24T06:12:46;13.23;;;10.30;;
66585;SDS011;53444;45.822;16.092;2023-08-24T06:15:13;14.68;;;10.90;;
66585;SDS011;53444;45.822;16.092;2023-08-24T06:17:42;16.30;;;11.57;;
66585;SDS011;53444;45.822;16.092;2023-08-24T06:20:09;18.08;;;11.55;;
66585;SDS011;53444;45.822;16.092;2023-08-24T06:22:36;17.65;;;11.75;;
66585;SDS011;53444;45.822;16.092;2023-08-24T06:25:05;17.30;;;12.27;;
66585;SDS011;53444;45.822;16.092;2023-08-24T06:27:33;17.17;;;11.95;;
66585;SDS011;53444;45.822;16.092;2023-08-24T06:30:00;15.93;;;11.47;;
66585;SDS011;53444;45.822;16.092;2023-08-24T06:32:28;16.15;;;11.23;;
66585;SDS011;53444;45.822;16.092;2023-08-24T06:34:56;15.68;;;11.43;;
66585;SDS011;53444;45.822;16.092;2023-08-24T06:37:23;16.38;;;12.43;;
66585;SDS011;53444;45.822;16.092;2023-08-24T06:39:49;20.30;;;12.30;;
66585;SDS011;53444;45.822;16.092;2023-08-24T06:42:16;15.87;;;12.07;;
66585;SDS011;53444;45.822;16.092;2023-08-24T06:44:42;15.57;;;12.10;;
66585;SDS011;53444;45.822;16.092;2023-08-24T06:47:09;15.23;;;11.27;;
66585;SDS011;53444;45.822;16.092;2023-08-24T06:49:35;18.08;;;11.90;;
66585;SDS011;53444;45.822;16.092;2023-08-24T06:52:04;14.23;;;10.88;;
66585;SDS011;53444;45.822;16.092;2023-08-24T06:54:31;12.67;;;9.93;;
66585;SDS011;53444;45.822;16.092;2023-08-24T06:56:57;12.77;;;10.35;;
66585;SDS011;53444;45.822;16.092;2023-08-24T06:59:24;16.30;;;10.60;;
66585;SDS011;53444;45.822;16.092;2023-08-24T07:01:50;14.75;;;11.07;;
66585;SDS011;53444;45.822;16.092;2023-08-24T07:04:17;12.52;;;10.32;;
66585;SDS011;53444;45.822;16.092;2023-08-24T07:06:44;14.13;;;11.00;;
66585;SDS011;53444;45.822;16.092;2023-08-24T07:09:12;16.88;;;11.20;;
66585;SDS011;53444;45.822;16.092;2023-08-24T07:11:40;13.20;;;10.60;;
66585;SDS011;53444;45.822;16.092;2023-08-24T07:14:06;12.25;;;9.82;;
66585;SDS011;53444;45.822;16.092;2023-08-24T07:16:33;13.43;;;10.35;;
66585;SDS011;53444;45.822;16.092;2023-08-24T07:19:00;19.20;;;12.40;;
66585;SDS011;53444;45.822;16.092;2023-08-24T07:21:27;15.13;;;10.85;;
66585;SDS011;53444;45.822;16.092;2023-08-24T07:23:54;14.20;;;11.25;;
66585;SDS011;53444;45.822;16.092;2023-08-24T07:26:22;16.35;;;10.40;;
66585;SDS011;53444;45.822;16.092;2023-08-24T07:28:50;13.77;;;10.50;;
66585;SDS011;53444;45.822;16.092;2023-08-24T07:31:17;13.67;;;10.63;;
66585;SDS011;53444;45.822;16.092;2023-08-24T07:33:43;15.10;;;10.75;;
66585;SDS011;53444;45.822;16.092;2023-08-24T07:36:10;14.93;;;10.10;;
66585;SDS011;53444;45.822;16.092;2023-08-24T07:38:37;14.30;;;9.30;;
66585;SDS011;53444;45.822;16.092;2023-08-24T07:41:03;13.57;;;10.38;;
66585;SDS011;53444;45.822;16.092;2023-08-24T07:43:32;13.77;;;9.97;;
66585;SDS011;53444;45.822;16.092;2023-08-24T07:45:59;13.77;;;9.95;;
66585;SDS011;53444;45.822;16.092;2023-08-24T07:48:25;16.15;;;10.32;;
66585;SDS011;53444;45.822;16.092;2023-08-24T07:50:52;16.02;;;10.27;;
66585;SDS011;53444;45.822;16.092;2023-08-24T07:53:19;13.35;;;9.55;;
66585;SDS011;53444;45.822;16.092;2023-08-24T07:55:45;16.13;;;9.00;;
66585;SDS011;53444;45.822;16.092;2023-08-24T07:58:12;12.48;;;8.57;;
66585;SDS011;53444;45.822;16.092;2023-08-24T08:00:40;12.60;;;9.40;;
66585;SDS011;53444;45.822;16.092;2023-08-24T08:03:07;11.45;;;9.30;;
66585;SDS011;53444;45.822;16.092;2023-08-24T08:05:33;13.95;;;9.43;;
66585;SDS011;53444;45.822;16.092;2023-08-24T08:08:00;16.10;;;9.83;;
66585;SDS011;53444;45.822;16.092;2023-08-24T08:10:27;10.88;;;8.07;;
66585;SDS011;53444;45.822;16.092;2023-08-24T08:12:53;9.48;;;7.50;;
66585;SDS011;53444;45.822;16.092;2023-08-24T08:15:20;8.98;;;7.72;;
66585;SDS011;53444;45.822;16.092;2023-08-24T08:17:48;10.93;;;8.15;;
66585;SDS011;53444;45.822;16.092;2023-08-24T08:20:15;10.60;;;7.73;;
66585;SDS011;53444;45.822;16.092;2023-08-24T08:22:42;10.65;;;8.90;;
66585;SDS011;53444;45.822;16.092;2023-08-24T08:25:08;12.00;;;7.80;;
66585;SDS011;53444;45.822;16.092;2023-08-24T08:27:37;9.45;;;8.13;;
66585;SDS011;53444;45.822;16.092;2023-08-24T08:30:04;11.50;;;8.15;;
66585;SDS011;53444;45.822;16.092;2023-08-24T08:32:32;9.93;;;7.60;;
66585;SDS011;53444;45.822;16.092;2023-08-24T08:35:00;9.93;;;7.10;;
66585;SDS011;53444;45.822;16.092;2023-08-24T08:37:30;10.98;;;6.95;;
66585;SDS011;53444;45.822;16.092;2023-08-24T08:39:56;9.60;;;7.22;;
66585;SDS011;53444;45.822;16.092;2023-08-24T08:42:23;11.18;;;7.78;;
66585;SDS011;53444;45.822;16.092;2023-08-24T08:44:50;9.50;;;7.13;;
66585;SDS011;53444;45.822;16.092;2023-08-24T08:47:19;9.48;;;7.78;;
66585;SDS011;53444;45.822;16.092;2023-08-24T08:49:48;10.05;;;7.50;;
66585;SDS011;53444;45.822;16.092;2023-08-24T08:52:16;9.32;;;7.75;;
66585;SDS011;53444;45.822;16.092;2023-08-24T08:54:42;12.18;;;8.35;;
66585;SDS011;53444;45.822;16.092;2023-08-24T08:57:09;15.63;;;7.50;;
66585;SDS011;53444;45.822;16.092;2023-08-24T08:59:36;8.60;;;7.25;;
66585;SDS011;53444;45.822;16.092;2023-08-24T09:02:03;11.13;;;8.10;;
66585;SDS011;53444;45.822;16.092;2023-08-24T09:04:31;8.10;;;6.72;;
66585;SDS011;53444;45.822;16.092;2023-08-24T09:06:58;11.13;;;7.63;;
66585;SDS011;53444;45.822;16.092;2023-08-24T09:09:27;10.53;;;7.50;;
66585;SDS011;53444;45.822;16.092;2023-08-24T09:11:54;9.05;;;7.43;;
66585;SDS011;53444;45.822;16.092;2023-08-24T09:14:21;10.63;;;7.65;;
66585;SDS011;53444;45.822;16.092;2023-08-24T09:16:47;8.77;;;7.00;;
66585;SDS011;53444;45.822;16.092;2023-08-24T09:19:15;9.85;;;7.60;;
66585;SDS011;53444;45.822;16.092;2023-08-24T09:21:42;12.80;;;8.10;;
66585;SDS011;53444;45.822;16.092;2023-08-24T09:24:08;10.27;;;7.35;;
66585;SDS011;53444;45.822;16.092;2023-08-24T09:26:38;9.13;;;7.10;;
66585;SDS011;53444;45.822;16.092;2023-08-24T09:29:11;9.02;;;8.13;;
66585;SDS011;53444;45.822;16.092;2023-08-24T09:31:39;10.05;;;7.82;;
66585;SDS011;53444;45.822;16.092;2023-08-24T09:34:06;9.23;;;7.33;;
66585;SDS011;53444;45.822;16.092;2023-08-24T09:36:33;9.88;;;7.47;;
66585;SDS011;53444;45.822;16.092;2023-08-24T09:39:01;12.60;;;7.93;;
66585;SDS011;53444;45.822;16.092;2023-08-24T09:41:40;8.82;;;7.10;;
66585;SDS011;53444;45.822;16.092;2023-08-24T09:44:08;8.27;;;7.28;;
66585;SDS011;53444;45.822;16.092;2023-08-24T09:46:34;8.30;;;7.40;;
66585;SDS011;53444;45.822;16.092;2023-08-24T09:49:03;8.82;;;7.45;;
66585;SDS011;53444;45.822;16.092;2023-08-24T09:51:31;8.38;;;7.50;;
66585;SDS011;53444;45.822;16.092;2023-08-24T09:53:59;11.05;;;8.43;;
66585;SDS011;53444;45.822;16.092;2023-08-24T09:56:28;10.45;;;7.20;;
66585;SDS011;53444;45.822;16.092;2023-08-24T09:58:57;12.77;;;8.07;;
66585;SDS011;53444;45.822;16.092;2023-08-24T10:01:30;8.90;;;8.00;;
66585;SDS011;53444;45.822;16.092;2023-08-24T10:03:57;10.55;;;7.82;;
66585;SDS011;53444;45.822;16.092;2023-08-24T10:06:27;10.43;;;7.32;;
66585;SDS011;53444;45.822;16.092;2023-08-24T10:08:55;10.15;;;7.30;;
66585;SDS011;53444;45.822;16.092;2023-08-24T10:11:29;9.37;;;7.47;;
66585;SDS011;53444;45.822;16.092;2023-08-24T10:14:04;9.00;;;7.88;;
66585;SDS011;53444;45.822;16.092;2023-08-24T10:16:35;8.38;;;7.65;;
66585;SDS011;53444;45.822;16.092;2023-08-24T10:19:02;11.60;;;7.35;;
66585;SDS011;53444;45.822;16.092;2023-08-24T10:21:29;8.25;;;7.45;;
66585;SDS011;53444;45.822;16.092;2023-08-24T10:23:56;7.63;;;6.90;;
66585;SDS011;53444;45.822;16.092;2023-08-24T10:26:23;8.00;;;6.88;;
66585;SDS011;53444;45.822;16.092;2023-08-24T10:28:50;8.25;;;6.85;;
66585;SDS011;53444;45.822;16.092;2023-08-24T10:31:19;9.77;;;6.72;;
66585;SDS011;53444;45.822;16.092;2023-08-24T10:33:46;14.77;;;7.40;;
66585;SDS011;53444;45.822;16.092;2023-08-24T10:36:13;8.30;;;6.90;;
66585;SDS011;53444;45.822;16.092;2023-08-24T10:38:40;7.90;;;6.80;;
66585;SDS011;53444;45.822;16.092;2023-08-24T10:41:09;11.52;;;7.00;;
66585;SDS011;53444;45.822;16.092;2023-08-24T10:43:39;8.75;;;7.85;;
66585;SDS011;53444;45.822;16.092;2023-08-24T10:46:11;9.00;;;7.53;;
66585;SDS011;53444;45.822;16.092;2023-08-24T10:51:24;7.18;;;5.95;;
66585;SDS011;53444;45.822;16.092;2023-08-24T10:53:53;8.75;;;6.40;;
66585;SDS011;53444;45.822;16.092;2023-08-24T10:56:24;6.68;;;6.00;;
66585;SDS011;53444;45.822;16.092;2023-08-24T10:59:09;7.80;;;6.10;;
66585;SDS011;53444;45.822;16.092;2023-08-24T11:01:38;7.10;;;6.37;;
66585;SDS011;53444;45.822;16.092;2023-08-24T11:04:06;7.80;;;6.30;;
66585;SDS011;53444;45.822;16.092;2023-08-24T11:06:34;7.18;;;6.47;;
66585;SDS011;53444;45.822;16.092;2023-08-24T11:09:07;7.38;;;6.30;;
66585;SDS011;53444;45.822;16.092;2023-08-24T11:11:39;6.53;;;5.93;;
66585;SDS011;53444;45.822;16.092;2023-08-24T11:14:15;6.53;;;5.87;;
66585;SDS011;53444;45.822;16.092;2023-08-24T11:16:45;8.68;;;5.70;;
66585;SDS011;53444;45.822;16.092;2023-08-24T11:19:14;6.82;;;6.18;;
66585;SDS011;53444;45.822;16.092;2023-08-24T11:21:41;7.85;;;5.95;;
66585;SDS011;53444;45.822;16.092;2023-08-24T11:24:09;7.22;;;6.50;;
66585;SDS011;53444;45.822;16.092;2023-08-24T11:26:41;9.03;;;6.83;;
66585;SDS011;53444;45.822;16.092;2023-08-24T11:29:09;6.80;;;6.20;;
66585;SDS011;53444;45.822;16.092;2023-08-24T11:31:36;7.70;;;6.80;;
66585;SDS011;53444;45.822;16.092;2023-08-24T11:34:04;7.75;;;6.22;;
66585;SDS011;53444;45.822;16.092;2023-08-24T11:36:39;7.55;;;6.53;;
66585;SDS011;53444;45.822;16.092;2023-08-24T11:39:13;6.50;;;5.90;;
66585;SDS011;53444;45.822;16.092;2023-08-24T11:41:41;6.97;;;6.32;;
66585;SDS011;53444;45.822;16.092;2023-08-24T11:44:08;8.45;;;6.68;;
66585;SDS011;53444;45.822;16.092;2023-08-24T11:46:34;7.40;;;6.70;;
66585;SDS011;53444;45.822;16.092;2023-08-24T11:49:04;7.40;;;6.60;;
66585;SDS011;53444;45.822;16.092;2023-08-24T11:51:31;8.03;;;6.73;;
66585;SDS011;53444;45.822;16.092;2023-08-24T11:54:01;6.68;;;6.07;;
66585;SDS011;53444;45.822;16.092;2023-08-24T11:56:27;6.97;;;6.38;;
66585;SDS011;53444;45.822;16.092;2023-08-24T11:58:54;7.05;;;6.30;;
66585;SDS011;53444;45.822;16.092;2023-08-24T12:01:21;6.85;;;6.15;;
66585;SDS011;53444;45.822;16.092;2023-08-24T12:03:47;6.90;;;6.20;;
66585;SDS011;53444;45.822;16.092;2023-08-24T12:06:15;7.65;;;6.60;;
66585;SDS011;53444;45.822;16.092;2023-08-24T12:08:44;8.57;;;6.30;;
66585;SDS011;53444;45.822;16.092;2023-08-24T12:11:14;7.25;;;6.55;;
66585;SDS011;53444;45.822;16.092;2023-08-24T12:13:45;7.43;;;6.22;;
66585;SDS011;53444;45.822;16.092;2023-08-24T12:16:13;7.10;;;6.40;;
66585;SDS011;53444;45.822;16.092;2023-08-24T12:18:47;7.38;;;6.60;;
66585;SDS011;53444;45.822;16.092;2023-08-24T12:21:17;7.90;;;7.03;;
66585;SDS011;53444;45.822;16.092;2023-08-24T12:23:44;7.30;;;6.60;;
66585;SDS011;53444;45.822;16.092;2023-08-24T12:26:21;7.10;;;6.40;;
66585;SDS011;53444;45.822;16.092;2023-08-24T12:28:49;7.30;;;6.57;;
66585;SDS011;53444;45.822;16.092;2023-08-24T12:31:17;8.75;;;6.50;;
66585;SDS011;53444;45.822;16.092;2023-08-24T12:33:44;7.55;;;6.60;;
66585;SDS011;53444;45.822;16.092;2023-08-24T12:36:11;8.88;;;7.10;;
66585;SDS011;53444;45.822;16.092;2023-08-24T12:38:38;11.95;;;8.15;;
66585;SDS011;53444;45.822;16.092;2023-08-24T12:41:06;9.67;;;7.40;;
66585;SDS011;53444;45.822;16.092;2023-08-24T12:43:35;8.05;;;7.32;;
66585;SDS011;53444;45.822;16.092;2023-08-24T12:46:01;9.82;;;7.10;;
66585;SDS011;53444;45.822;16.092;2023-08-24T12:48:28;8.00;;;7.20;;
66585;SDS011;53444;45.822;16.092;2023-08-24T12:50:54;7.72;;;6.85;;
66585;SDS011;53444;45.822;16.092;2023-08-24T12:53:21;8.20;;;7.20;;
66585;SDS011;53444;45.822;16.092;2023-08-24T12:55:48;8.48;;;7.22;;
66585;SDS011;53444;45.822;16.092;2023-08-24T12:58:14;9.30;;;7.10;;
66585;SDS011;53444;45.822;16.092;2023-08-24T13:00:42;11.48;;;7.20;;
66585;SDS011;53444;45.822;16.092;2023-08-24T13:03:09;9.50;;;7.10;;
66585;SDS011;53444;45.822;16.092;2023-08-24T13:05:36;7.90;;;7.10;;
66585;SDS011;53444;45.822;16.092;2023-08-24T13:08:03;7.00;;;6.40;;
66585;SDS011;53444;45.822;16.092;2023-08-24T13:10:30;9.65;;;7.07;;
66585;SDS011;53444;45.822;16.092;2023-08-24T13:12:57;7.60;;;6.68;;
66585;SDS011;53444;45.822;16.092;2023-08-24T13:15:24;7.50;;;6.80;;
66585;SDS011;53444;45.822;16.092;2023-08-24T13:17:52;8.83;;;7.47;;
66585;SDS011;53444;45.822;16.092;2023-08-24T13:20:19;7.90;;;7.10;;
66585;SDS011;53444;45.822;16.092;2023-08-24T13:22:46;8.90;;;7.68;;
66585;SDS011;53444;45.822;16.092;2023-08-24T13:25:12;7.07;;;6.32;;
66585;SDS011;53444;45.822;16.092;2023-08-24T13:27:39;7.60;;;6.88;;
66585;SDS011;53444;45.822;16.092;2023-08-24T13:30:06;8.17;;;7.37;;
66585;SDS011;53444;45.822;16.092;2023-08-24T13:32:33;9.45;;;7.65;;
66585;SDS011;53444;45.822;16.092;2023-08-24T13:35:01;7.10;;;6.40;;
66585;SDS011;53444;45.822;16.092;2023-08-24T13:37:28;7.47;;;6.78;;
66585;SDS011;53444;45.822;16.092;2023-08-24T13:39:55;7.43;;;6.82;;
66585;SDS011;53444;45.822;16.092;2023-08-24T13:42:21;8.37;;;7.47;;
66585;SDS011;53444;45.822;16.092;2023-08-24T13:44:48;8.27;;;6.53;;
66585;SDS011;53444;45.822;16.092;2023-08-24T13:47:15;8.95;;;7.22;;
66585;SDS011;53444;45.822;16.092;2023-08-24T13:49:41;7.25;;;6.55;;
66585;SDS011;53444;45.822;16.092;2023-08-24T13:52:09;7.88;;;6.93;;
66585;SDS011;53444;45.822;16.092;2023-08-24T13:54:37;6.80;;;6.20;;
66585;SDS011;53444;45.822;16.092;2023-08-24T13:57:03;8.02;;;6.32;;
66585;SDS011;53444;45.822;16.092;2023-08-24T13:59:30;7.47;;;6.22;;
66585;SDS011;53444;45.822;16.092;2023-08-24T14:01:58;7.88;;;6.40;;
66585;SDS011;53444;45.822;16.092;2023-08-24T14:04:25;7.53;;;6.55;;
66585;SDS011;53444;45.822;16.092;2023-08-24T14:06:51;6.50;;;5.90;;
66585;SDS011;53444;45.822;16.092;2023-08-24T14:09:19;9.57;;;6.00;;
66585;SDS011;53444;45.822;16.092;2023-08-24T14:11:46;7.13;;;6.20;;
66585;SDS011;53444;45.822;16.092;2023-08-24T14:14:13;7.38;;;6.68;;
66585;SDS011;53444;45.822;16.092;2023-08-24T14:16:40;8.80;;;6.38;;
66585;SDS011;53444;45.822;16.092;2023-08-24T14:19:07;7.17;;;6.47;;
66585;SDS011;53444;45.822;16.092;2023-08-24T14:21:34;8.00;;;6.22;;
66585;SDS011;53444;45.822;16.092;2023-08-24T14:24:01;8.43;;;6.10;;
66585;SDS011;53444;45.822;16.092;2023-08-24T14:26:29;6.80;;;6.03;;
66585;SDS011;53444;45.822;16.092;2023-08-24T14:28:56;6.82;;;6.13;;
66585;SDS011;53444;45.822;16.092;2023-08-24T14:31:25;7.40;;;6.70;;
66585;SDS011;53444;45.822;16.092;2023-08-24T14:33:53;6.53;;;5.93;;